Time;durP1;ratioP1;P1;durP2;ratioP2;P2;SDS_P1;SDS_P2;PMS_P1;PMS_P2;Temp;Humidity;BMP_temperature;BMP_pressure;BME280_temperature;BME280_humidity;BME280_pressure;Samples;Min_cycle;Max_cycle;Signal;HPM_P1;HPM_P2
2023/10/20 00:00:35;;;;;;;8.63;8.43;;;12.50;99.90;;;;;;5125189;28;20224;-82
2023/10/20 00:03:06;;;;;;;8.70;8.50;;;12.50;99.90;;;;;;5125316;27;20231;-82
2023/10/20 00:05:35;;;;;;;8.70;8.50;;;12.40;99.90;;;;;;5125174;28;20271;-82
2023/10/20 00:08:04;;;;;;;9.00;8.70;;;12.40;99.90;;;;;;5123859;28;20232;-82
2023/10/20 00:10:39;;;;;;;8.70;8.50;;;12.40;99.90;;;;;;5124537;28;20229;-82
2023/10/20 00:13:06;;;;;;;8.80;8.50;;;12.40;99.90;;;;;;5124122;28;20228;-81
2023/10/20 00:15:34;;;;;;;8.40;8.20;;;12.30;99.90;;;;;;5124775;28;20269;-80
2023/10/20 00:18:02;;;;;;;8.60;8.40;;;12.30;99.90;;;;;;5124530;28;20232;-82
2023/10/20 00:20:31;;;;;;;8.87;8.57;;;12.30;99.90;;;;;;5124052;27;20290;-80
2023/10/20 00:23:02;;;;;;;8.80;8.50;;;12.30;99.90;;;;;;5128077;28;20239;-82
2023/10/20 00:25:31;;;;;;;9.00;8.70;;;12.30;99.90;;;;;;5127851;28;20237;-82
2023/10/20 00:28:03;;;;;;;9.00;8.70;;;12.30;99.90;;;;;;5127308;28;20251;-80
2023/10/20 00:30:30;;;;;;;9.00;8.70;;;12.30;99.90;;;;;;5127244;28;20243;-80
2023/10/20 00:32:58;;;;;;;8.90;8.60;;;12.30;99.90;;;;;;5127232;28;20296;-80
2023/10/20 00:35:28;;;;;;;8.70;8.50;;;12.20;99.90;;;;;;5128283;28;20221;-81
2023/10/20 00:38:01;;;;;;;8.60;8.40;;;12.20;99.90;;;;;;5127487;28;20260;-80
2023/10/20 00:40:30;;;;;;;8.53;8.33;;;12.20;99.90;;;;;;5127462;28;20264;-81
2023/10/20 00:43:00;;;;;;;8.57;8.37;;;12.20;99.90;;;;;;5125610;28;20231;-81
2023/10/20 00:45:36;;;;;;;8.60;8.40;;;12.20;99.90;;;;;;5120925;28;20279;-81
2023/10/20 00:48:06;;;;;;;8.90;8.60;;;12.20;99.90;;;;;;5118309;28;20240;-80
2023/10/20 00:50:45;;;;;;;9.00;8.70;;;12.20;99.90;;;;;;5121191;28;20244;-80
2023/10/20 00:53:14;;;;;;;8.63;8.43;;;12.20;99.90;;;;;;5116544;28;20224;-81
2023/10/20 00:55:43;;;;;;;8.60;8.40;;;12.20;99.90;;;;;;5118521;27;20225;-81
2023/10/20 00:58:12;;;;;;;8.40;8.20;;;12.10;99.90;;;;;;5127301;27;20227;-81
2023/10/20 01:00:42;;;;;;;8.40;8.20;;;12.20;99.90;;;;;;5126687;27;20284;-81
2023/10/20 01:03:11;;;;;;;8.50;8.30;;;12.20;99.90;;;;;;5126886;27;20229;-81
2023/10/20 01:05:41;;;;;;;9.10;8.80;;;12.10;99.90;;;;;;5127094;27;20256;-81
2023/10/20 01:08:11;;;;;;;9.00;8.70;;;12.20;99.90;;;;;;5126582;27;20252;-81
2023/10/20 01:10:39;;;;;;;9.00;8.70;;;12.20;99.90;;;;;;5126666;27;20229;-82
2023/10/20 01:13:10;;;;;;;8.90;8.60;;;12.20;99.90;;;;;;5126653;27;20244;-81
2023/10/20 01:15:38;;;;;;;8.90;8.60;;;12.10;99.90;;;;;;5118465;27;20328;-81
2023/10/20 01:18:10;;;;;;;8.70;8.50;;;12.20;99.90;;;;;;5122944;27;20284;-81
2023/10/20 01:20:38;;;;;;;8.70;8.50;;;12.20;99.90;;;;;;5131696;27;20217;-81
2023/10/20 01:23:07;;;;;;;8.70;8.50;;;12.20;99.90;;;;;;5123113;27;20229;-82
2023/10/20 01:25:37;;;;;;;8.20;8.00;;;12.10;99.90;;;;;;5114702;27;20237;-79
2023/10/20 01:28:06;;;;;;;8.43;8.23;;;12.10;99.90;;;;;;5119957;28;20240;-80
2023/10/20 01:30:35;;;;;;;8.40;8.20;;;12.10;99.90;;;;;;5120463;28;20244;-81
2023/10/20 01:33:05;;;;;;;8.50;8.30;;;12.10;99.90;;;;;;5126437;27;20267;-82
2023/10/20 01:35:35;;;;;;;8.40;8.20;;;12.10;99.90;;;;;;5127713;27;20236;-81
2023/10/20 01:38:03;;;;;;;8.70;8.50;;;12.10;99.90;;;;;;5127699;27;20289;-81
2023/10/20 01:40:33;;;;;;;8.70;8.50;;;12.10;99.90;;;;;;5127032;27;20323;-81
2023/10/20 01:43:05;;;;;;;8.60;8.40;;;12.10;99.90;;;;;;5117689;28;20253;-81
2023/10/20 01:45:32;;;;;;;8.83;8.57;;;12.10;99.90;;;;;;5107390;28;20229;-80
2023/10/20 01:48:00;;;;;;;8.60;8.40;;;12.10;99.90;;;;;;5106903;28;20233;-81
2023/10/20 01:50:33;;;;;;;8.60;8.40;;;12.10;99.90;;;;;;5107185;28;20287;-81
2023/10/20 01:53:00;;;;;;;8.80;8.60;;;12.00;99.90;;;;;;5116121;28;20236;-81
2023/10/20 01:55:31;;;;;;;8.60;8.40;;;12.00;99.90;;;;;;5112672;28;20246;-82
2023/10/20 01:58:00;;;;;;;8.47;8.27;;;12.00;99.90;;;;;;5116116;27;20237;-81
2023/10/20 02:00:31;;;;;;;8.50;8.30;;;12.00;99.90;;;;;;5105558;28;20233;-80
2023/10/20 02:02:58;;;;;;;8.47;8.27;;;12.00;99.90;;;;;;5114971;28;20263;-80
2023/10/20 02:05:27;;;;;;;8.43;8.23;;;12.00;99.90;;;;;;5107259;28;20238;-81
2023/10/20 02:07:54;;;;;;;8.53;8.33;;;12.00;99.90;;;;;;5108420;28;20256;-81
2023/10/20 02:10:26;;;;;;;8.20;8.00;;;12.10;99.90;;;;;;5106685;28;20236;-80
2023/10/20 02:12:54;;;;;;;8.10;7.90;;;12.10;99.90;;;;;;5111153;28;20310;-81
2023/10/20 02:15:21;;;;;;;8.40;8.20;;;12.10;99.90;;;;;;5115106;28;20264;-81
2023/10/20 02:17:51;;;;;;;8.20;8.00;;;12.10;99.90;;;;;;5121457;28;20246;-81
2023/10/20 02:20:25;;;;;;;7.83;7.63;;;12.10;99.90;;;;;;5121211;28;20245;-81
2023/10/20 02:22:54;;;;;;;8.00;7.80;;;12.10;99.90;;;;;;5114353;28;20256;-81
2023/10/20 02:25:22;;;;;;;8.33;8.13;;;12.10;99.90;;;;;;5106236;28;20259;-81
2023/10/20 02:27:52;;;;;;;8.50;8.30;;;12.00;99.90;;;;;;5105890;28;20237;-81
2023/10/20 02:30:23;;;;;;;8.87;8.57;;;11.90;99.90;;;;;;5105612;28;20320;-81
2023/10/20 02:32:54;;;;;;;8.90;8.60;;;11.90;99.90;;;;;;5105987;28;20229;-81
2023/10/20 02:35:21;;;;;;;8.80;8.60;;;11.90;99.90;;;;;;5105979;28;20229;-81
2023/10/20 02:37:49;;;;;;;8.90;8.60;;;11.90;99.90;;;;;;5105352;28;20233;-81
2023/10/20 02:40:19;;;;;;;8.67;8.47;;;11.90;99.90;;;;;;5105129;28;20246;-81
2023/10/20 02:42:51;;;;;;;8.70;8.50;;;11.90;99.90;;;;;;5105466;28;20268;-80
2023/10/20 02:45:31;;;;;;;8.40;8.20;;;11.90;99.90;;;;;;5104642;28;20336;-81
2023/10/20 02:48:00;;;;;;;8.50;8.30;;;12.00;99.90;;;;;;5105544;28;20260;-80
2023/10/20 02:50:28;;;;;;;8.50;8.30;;;12.00;99.90;;;;;;5105634;28;20329;-80
2023/10/20 02:52:57;;;;;;;8.27;8.07;;;12.00;99.90;;;;;;5114648;28;20253;-81
2023/10/20 02:55:27;;;;;;;8.60;8.40;;;12.00;99.90;;;;;;5112128;28;20308;-80
2023/10/20 02:58:07;;;;;;;8.50;8.30;;;12.00;99.90;;;;;;5118208;28;20229;-80
2023/10/20 03:00:43;;;;;;;8.40;8.20;;;12.10;99.90;;;;;;5105377;28;20221;-81
2023/10/20 03:03:13;;;;;;;8.10;7.90;;;12.10;99.90;;;;;;5104227;28;20301;-81
2023/10/20 03:05:43;;;;;;;7.90;7.70;;;12.00;99.90;;;;;;5109048;28;20232;-80
2023/10/20 03:08:12;;;;;;;8.10;7.90;;;12.10;99.90;;;;;;5112740;28;20293;-80
2023/10/20 03:10:41;;;;;;;7.63;7.43;;;12.00;99.90;;;;;;5104169;28;20312;-81
2023/10/20 03:13:22;;;;;;;7.70;7.50;;;12.00;99.90;;;;;;5106664;28;20230;-81
2023/10/20 03:15:49;;;;;;;8.13;7.93;;;12.00;99.90;;;;;;5104989;28;20229;-81
2023/10/20 03:18:21;;;;;;;8.37;8.17;;;12.10;99.90;;;;;;5105157;28;20285;-80
2023/10/20 03:20:48;;;;;;;8.43;8.23;;;12.00;99.90;;;;;;5104168;28;20224;-81
2023/10/20 03:23:18;;;;;;;8.40;8.20;;;12.00;99.90;;;;;;5116361;28;20236;-81
2023/10/20 03:25:46;;;;;;;8.40;8.20;;;11.90;99.90;;;;;;5129617;28;20229;-81
2023/10/20 03:28:26;;;;;;;8.20;8.00;;;11.90;99.90;;;;;;5126277;28;20311;-81
2023/10/20 03:30:54;;;;;;;8.60;8.40;;;11.90;99.90;;;;;;5126317;28;20236;-82
2023/10/20 03:33:24;;;;;;;8.93;8.63;;;11.80;99.90;;;;;;5125000;28;20232;-80
2023/10/20 03:36:01;;;;;;;8.40;8.20;;;11.80;99.90;;;;;;5124995;28;20239;-80
2023/10/20 03:38:32;;;;;;;8.30;8.10;;;11.70;99.90;;;;;;5124596;28;20221;-81
2023/10/20 03:41:09;;;;;;;8.33;8.13;;;11.70;99.90;;;;;;5123893;28;20239;-81
2023/10/20 03:43:37;;;;;;;8.10;7.90;;;11.80;99.90;;;;;;5124438;28;20235;-81
2023/10/20 03:46:07;;;;;;;8.13;7.93;;;11.80;99.90;;;;;;5123664;28;20267;-81
2023/10/20 03:48:39;;;;;;;8.33;8.13;;;11.70;99.90;;;;;;5124043;28;20240;-81
2023/10/20 03:51:11;;;;;;;8.33;8.13;;;11.70;99.90;;;;;;5123404;28;20312;-81
2023/10/20 03:53:46;;;;;;;8.23;8.03;;;11.80;99.90;;;;;;5116886;27;20233;-80
2023/10/20 03:56:18;;;;;;;8.30;8.10;;;11.70;99.90;;;;;;5107793;28;20224;-81
2023/10/20 03:58:46;;;;;;;8.40;8.20;;;11.80;99.90;;;;;;5110859;28;20221;-79
2023/10/20 04:01:13;;;;;;;8.43;8.23;;;11.80;99.90;;;;;;5108131;28;20230;-80
2023/10/20 04:03:50;;;;;;;8.30;8.10;;;11.80;99.90;;;;;;5114771;28;20230;-80
2023/10/20 04:06:20;;;;;;;8.20;8.00;;;11.80;99.90;;;;;;5127472;27;20258;-80
2023/10/20 04:08:51;;;;;;;8.30;8.10;;;11.80;99.90;;;;;;5127066;27;20236;-80
2023/10/20 04:11:20;;;;;;;8.53;8.33;;;11.80;99.90;;;;;;5126358;27;20217;-80
2023/10/20 04:13:50;;;;;;;8.60;8.40;;;11.90;99.90;;;;;;5119350;27;20239;-82
2023/10/20 04:16:19;;;;;;;8.30;8.10;;;11.90;99.90;;;;;;5115492;28;20221;-82
2023/10/20 04:18:48;;;;;;;8.20;8.00;;;11.90;99.90;;;;;;5114586;28;20241;-80
2023/10/20 04:21:17;;;;;;;8.43;8.23;;;11.80;99.90;;;;;;5121769;28;20240;-80
2023/10/20 04:23:47;;;;;;;8.40;8.20;;;11.80;99.90;;;;;;5127702;28;20297;-80
2023/10/20 04:26:19;;;;;;;8.40;8.20;;;11.90;99.90;;;;;;5119601;28;20324;-79
2023/10/20 04:28:48;;;;;;;8.27;8.07;;;11.90;99.90;;;;;;5119723;27;20218;-79
2023/10/20 04:45:42;;;;;;;7.73;7.53;;;11.80;99.90;;;;;;5123658;28;20323;-80
2023/10/20 04:48:20;;;;;;;7.97;7.77;;;11.80;99.90;;;;;;5125549;28;20235;-80
2023/10/20 04:51:18;;;;;;;7.70;7.50;;;11.80;99.90;;;;;;5117895;27;20233;-80
2023/10/20 04:53:54;;;;;;;7.80;7.60;;;11.70;99.90;;;;;;5114079;28;20228;-80
2023/10/20 04:56:39;;;;;;;7.87;7.67;;;11.80;99.90;;;;;;5109252;28;20247;-80
2023/10/20 04:59:05;;;;;;;7.60;7.40;;;11.80;99.90;;;;;;5125159;27;20225;-82
2023/10/20 05:01:47;;;;;;;7.67;7.47;;;11.80;99.90;;;;;;5113865;28;20244;-80
2023/10/20 05:04:16;;;;;;;7.67;7.47;;;11.80;99.90;;;;;;5119265;28;20228;-80
2023/10/20 05:06:45;;;;;;;7.60;7.40;;;11.80;99.90;;;;;;5118821;27;20237;-80
2023/10/20 05:09:16;;;;;;;7.60;7.40;;;11.80;99.90;;;;;;5107421;28;20226;-80
2023/10/20 05:11:44;;;;;;;7.40;7.20;;;11.80;99.90;;;;;;5106406;28;20815;-80
2023/10/20 05:14:13;;;;;;;7.60;7.40;;;11.80;99.90;;;;;;5105496;28;20220;-80
2023/10/20 05:16:45;;;;;;;7.80;7.60;;;11.70;99.90;;;;;;5106049;28;20225;-80
2023/10/20 05:19:12;;;;;;;8.20;8.00;;;11.70;99.90;;;;;;5107457;28;20229;-80
2023/10/20 05:21:40;;;;;;;8.27;8.07;;;11.70;99.90;;;;;;5106867;28;20332;-80
2023/10/20 05:24:11;;;;;;;7.90;7.70;;;11.80;99.90;;;;;;5106271;28;20288;-82
2023/10/20 05:26:40;;;;;;;8.00;7.80;;;11.80;99.90;;;;;;5106337;28;20233;-80
2023/10/20 05:29:11;;;;;;;8.00;7.80;;;11.80;99.90;;;;;;5105971;28;20669;-81
2023/10/20 05:31:39;;;;;;;8.00;7.80;;;11.80;99.90;;;;;;5115893;28;20233;-80
2023/10/20 05:34:12;;;;;;;7.83;7.63;;;11.80;99.90;;;;;;5114380;28;20266;-80
2023/10/20 05:36:40;;;;;;;8.10;7.90;;;11.90;99.90;;;;;;5106535;28;20256;-80
2023/10/20 05:39:09;;;;;;;8.07;7.87;;;11.90;99.90;;;;;;5106158;28;20233;-80
2023/10/20 05:41:37;;;;;;;8.17;7.97;;;11.90;99.90;;;;;;5107280;28;20301;-80
2023/10/20 05:44:11;;;;;;;8.13;7.93;;;11.90;99.90;;;;;;5110012;28;20229;-81
2023/10/20 05:46:40;;;;;;;8.30;8.10;;;11.90;99.90;;;;;;5126851;28;20232;-81
2023/10/20 05:49:08;;;;;;;8.30;8.10;;;11.90;99.90;;;;;;5115680;28;20237;-81
2023/10/20 05:51:35;;;;;;;8.30;8.10;;;11.90;99.90;;;;;;5119798;28;20221;-82
2023/10/20 05:54:04;;;;;;;8.50;8.30;;;11.80;99.90;;;;;;5109414;28;20224;-82
2023/10/20 05:56:34;;;;;;;8.70;8.50;;;11.70;99.90;;;;;;5120960;27;20248;-81
2023/10/20 05:59:03;;;;;;;8.80;8.50;;;11.70;99.90;;;;;;5125485;28;20236;-81
2023/10/20 06:01:31;;;;;;;8.30;8.10;;;11.70;99.90;;;;;;5126249;27;20229;-82
2023/10/20 06:04:08;;;;;;;8.30;8.10;;;11.70;99.90;;;;;;5118107;27;20232;-81
2023/10/20 06:06:39;;;;;;;8.30;8.10;;;11.80;99.90;;;;;;5126316;27;20933;-81
2023/10/20 06:09:10;;;;;;;8.20;8.00;;;11.80;99.90;;;;;;5115459;27;20260;-79
2023/10/20 06:11:39;;;;;;;8.37;8.17;;;11.80;99.90;;;;;;5106367;28;20225;-79
2023/10/20 06:14:07;;;;;;;8.20;8.00;;;11.80;99.90;;;;;;5105987;28;20272;-82
2023/10/20 06:16:37;;;;;;;8.20;8.00;;;11.80;99.90;;;;;;5105680;28;20221;-82
2023/10/20 06:19:06;;;;;;;8.20;8.00;;;11.90;99.90;;;;;;5104295;28;20307;-82
2023/10/20 06:24:16;;;;;;;8.97;8.77;;;11.80;99.90;;;;;;5117109;27;20434;-83
2023/10/20 06:26:47;;;;;;;8.60;8.40;;;11.90;99.90;;;;;;5127698;27;20455;-83
2023/10/20 06:29:26;;;;;;;8.57;8.37;;;12.00;99.90;;;;;;5127881;27;20232;-84
2023/10/20 06:32:11;;;;;;;8.43;8.23;;;12.10;99.90;;;;;;5128262;27;20279;-82
2023/10/20 06:34:41;;;;;;;8.27;8.07;;;12.10;99.90;;;;;;5130607;27;20220;-85
2023/10/20 06:37:19;;;;;;;8.20;8.00;;;12.10;99.90;;;;;;5118647;27;20240;-82
2023/10/20 06:39:59;;;;;;;8.27;8.07;;;12.10;99.90;;;;;;5125196;27;20282;-84
2023/10/20 06:45:13;;;;;;;8.60;8.40;;;12.00;99.90;;;;;;5124983;27;20249;-81
2023/10/20 06:47:42;;;;;;;8.87;8.57;;;11.90;99.90;;;;;;5127594;27;20332;-81
2023/10/20 06:50:13;;;;;;;8.60;8.40;;;11.80;99.90;;;;;;5126836;27;20331;-81
2023/10/20 06:52:42;;;;;;;8.50;8.30;;;11.80;99.90;;;;;;5126698;27;20239;-81
2023/10/20 06:55:13;;;;;;;8.60;8.40;;;11.70;99.90;;;;;;5128583;27;20316;-82
2023/10/20 06:57:43;;;;;;;8.90;8.60;;;11.70;99.90;;;;;;5126976;27;20261;-82
2023/10/20 07:02:54;;;;;;;8.10;7.90;;;11.60;99.90;;;;;;5127819;27;20221;-82
2023/10/20 07:05:23;;;;;;;8.03;7.83;;;11.60;99.90;;;;;;5127054;27;20247;-82
2023/10/20 07:07:59;;;;;;;8.00;7.80;;;11.50;99.90;;;;;;5127175;27;20248;-82
2023/10/20 07:10:26;;;;;;;8.30;8.10;;;11.60;99.90;;;;;;5126754;27;20256;-82
2023/10/20 07:12:58;;;;;;;8.30;8.10;;;11.60;99.90;;;;;;5126308;27;20213;-82
2023/10/20 07:15:25;;;;;;;8.73;8.50;;;11.60;99.90;;;;;;5126706;27;20388;-83
2023/10/20 07:17:54;;;;;;;8.37;8.17;;;11.60;99.90;;;;;;5126920;27;20236;-83
2023/10/20 07:20:24;;;;;;;8.17;7.97;;;11.60;99.90;;;;;;5126711;27;20233;-81
2023/10/20 07:22:53;;;;;;;8.20;8.00;;;11.60;99.90;;;;;;5125926;27;20232;-81
2023/10/20 07:25:21;;;;;;;8.23;8.03;;;11.60;99.90;;;;;;5126525;27;20267;-82
2023/10/20 07:27:52;;;;;;;7.93;7.73;;;11.60;99.90;;;;;;5130604;27;20272;-82
2023/10/20 07:30:24;;;;;;;8.17;7.97;;;11.70;99.90;;;;;;5129773;27;20225;-83
2023/10/20 07:32:51;;;;;;;8.30;8.10;;;11.60;99.90;;;;;;5129511;27;20236;-81
2023/10/20 07:35:20;;;;;;;8.27;8.07;;;11.60;99.90;;;;;;5130001;27;20243;-83
2023/10/20 07:37:50;;;;;;;8.60;8.40;;;11.60;99.90;;;;;;5128231;27;20263;-82
2023/10/20 07:42:58;;;;;;;8.00;7.80;;;11.70;99.90;;;;;;5127065;28;20247;-84
2023/10/20 07:45:31;;;;;;;8.00;7.80;;;11.70;99.90;;;;;;5128109;28;20240;-81
2023/10/20 07:48:05;;;;;;;8.10;7.90;;;11.70;99.90;;;;;;5128712;28;20236;-87
2023/10/20 07:53:14;;;;;;;8.00;7.80;;;11.80;99.90;;;;;;5125579;27;20216;-83
2023/10/20 07:55:43;;;;;;;8.20;8.00;;;11.90;99.90;;;;;;5129347;27;20281;-81
2023/10/20 07:58:11;;;;;;;8.33;8.13;;;11.90;99.90;;;;;;5129052;27;20235;-81
2023/10/20 08:00:41;;;;;;;8.20;8.00;;;12.00;99.90;;;;;;5128160;27;20239;-80
2023/10/20 08:03:11;;;;;;;8.30;8.10;;;12.00;99.90;;;;;;5127496;28;20224;-82
2023/10/20 08:05:40;;;;;;;8.10;7.90;;;12.00;99.90;;;;;;5128463;28;20217;-81
2023/10/20 08:08:09;;;;;;;8.20;8.00;;;11.90;99.90;;;;;;5128890;28;20293;-80
2023/10/20 08:10:39;;;;;;;8.23;8.03;;;11.90;99.90;;;;;;5127461;28;20267;-80
2023/10/20 08:13:09;;;;;;;8.10;7.90;;;11.90;99.90;;;;;;5127405;28;20247;-82
2023/10/20 08:15:41;;;;;;;8.07;7.87;;;11.90;99.90;;;;;;5128137;27;20241;-81
2023/10/20 08:18:08;;;;;;;8.00;7.80;;;11.90;99.90;;;;;;5127111;28;20241;-83
2023/10/20 08:20:36;;;;;;;7.90;7.70;;;11.90;99.90;;;;;;5127782;28;20236;-82
2023/10/20 08:23:06;;;;;;;8.57;8.37;;;11.90;99.90;;;;;;5127095;27;20221;-82
2023/10/20 08:25:37;;;;;;;8.33;8.13;;;11.90;99.90;;;;;;5126461;28;20217;-82
2023/10/20 08:28:05;;;;;;;8.10;7.90;;;12.00;99.90;;;;;;5127378;28;20239;-81
2023/10/20 08:30:35;;;;;;;8.20;8.00;;;12.00;99.90;;;;;;5129427;28;20229;-84
2023/10/20 08:33:05;;;;;;;7.90;7.70;;;12.20;99.90;;;;;;5129510;28;20331;-82
2023/10/20 08:35:34;;;;;;;7.77;7.57;;;12.20;99.90;;;;;;5129815;28;20220;-82
2023/10/20 08:38:03;;;;;;;8.10;7.90;;;12.20;99.90;;;;;;5130598;27;20240;-82
2023/10/20 08:40:34;;;;;;;7.90;7.70;;;12.20;99.90;;;;;;5129969;28;20229;-83
2023/10/20 08:43:04;;;;;;;8.17;7.97;;;12.30;99.90;;;;;;5129980;27;20310;-83
2023/10/20 08:45:33;;;;;;;7.97;7.77;;;12.30;99.90;;;;;;5123308;28;20213;-82
2023/10/20 08:48:05;;;;;;;8.30;8.10;;;12.40;99.90;;;;;;5113513;28;20300;-82
2023/10/20 08:50:33;;;;;;;8.40;8.20;;;12.40;99.90;;;;;;5113369;28;20241;-82
2023/10/20 08:53:04;;;;;;;8.40;8.20;;;12.40;99.90;;;;;;5115856;28;20234;-80
2023/10/20 08:55:31;;;;;;;8.20;8.00;;;12.40;99.90;;;;;;5119341;28;20214;-84
2023/10/20 08:57:59;;;;;;;8.27;8.07;;;12.50;99.90;;;;;;5115287;28;20225;-80
2023/10/20 09:00:30;;;;;;;7.97;7.77;;;12.50;99.90;;;;;;5117897;28;20217;-79
2023/10/20 09:02:59;;;;;;;8.10;7.90;;;12.60;99.90;;;;;;5121049;28;20220;-81
2023/10/20 09:05:31;;;;;;;8.00;7.80;;;12.70;99.90;;;;;;5120565;28;20221;-81
2023/10/20 09:07:59;;;;;;;8.10;7.90;;;12.70;99.90;;;;;;5121245;28;20256;-80
2023/10/20 09:10:27;;;;;;;8.40;8.20;;;12.70;99.90;;;;;;5121377;28;20212;-82
2023/10/20 09:12:58;;;;;;;8.50;8.30;;;12.80;99.90;;;;;;5121606;28;20222;-83
2023/10/20 09:15:30;;;;;;;8.10;7.90;;;12.80;99.90;;;;;;5122447;28;20417;-84
2023/10/20 09:17:57;;;;;;;8.30;8.10;;;12.90;99.90;;;;;;5121821;28;20239;-81
2023/10/20 09:20:25;;;;;;;8.60;8.40;;;12.90;99.90;;;;;;5123769;27;20301;-83
2023/10/20 09:22:58;;;;;;;8.00;7.80;;;12.90;99.90;;;;;;5141731;27;20300;-83
2023/10/20 09:25:27;;;;;;;7.97;7.77;;;12.90;99.90;;;;;;5142756;27;20272;-83
2023/10/20 09:27:55;;;;;;;8.10;7.90;;;12.90;99.90;;;;;;5141984;27;20232;-83
2023/10/20 09:30:24;;;;;;;8.00;7.80;;;12.90;99.90;;;;;;5142761;27;20217;-82
2023/10/20 09:32:52;;;;;;;8.03;7.83;;;12.90;99.90;;;;;;5142319;27;20223;-82
2023/10/20 09:35:22;;;;;;;8.03;7.83;;;12.90;99.90;;;;;;5143093;27;20208;-83
2023/10/20 09:37:54;;;;;;;8.30;8.10;;;12.90;99.90;;;;;;5142637;27;20246;-83
2023/10/20 09:40:23;;;;;;;8.10;7.90;;;13.00;99.90;;;;;;5142233;27;20233;-83
2023/10/20 09:43:07;;;;;;;8.53;8.33;;;13.10;99.90;;;;;;5141897;27;20225;-82
2023/10/20 09:45:38;;;;;;;8.73;8.53;;;13.20;99.90;;;;;;5142908;27;20209;-82
2023/10/20 09:48:15;;;;;;;8.63;8.43;;;13.20;99.90;;;;;;5141391;27;20248;-84
2023/10/20 09:53:42;;;;;;;8.47;8.27;;;13.40;99.90;;;;;;5132285;27;20225;-87
2023/10/20 09:56:10;;;;;;;8.10;7.90;;;13.50;99.90;;;;;;5118631;28;20232;-86
2023/10/20 09:58:39;;;;;;;8.60;8.40;;;13.60;99.90;;;;;;5125953;28;20225;-85
2023/10/20 10:01:09;;;;;;;8.53;8.33;;;13.80;99.90;;;;;;5130818;27;20236;-85
2023/10/20 10:03:40;;;;;;;8.50;8.30;;;13.90;99.90;;;;;;5130350;28;20233;-86
2023/10/20 10:08:57;;;;;;;8.80;8.60;;;14.30;99.90;;;;;;5130372;27;20237;-85
2023/10/20 10:11:42;;;;;;;9.10;8.80;;;14.50;99.90;;;;;;5129796;28;20263;-86
2023/10/20 10:14:20;;;;;;;8.90;8.70;;;14.60;99.90;;;;;;5134997;28;20278;-87
2023/10/20 10:17:01;;;;;;;9.20;8.90;;;14.60;99.90;;;;;;5131411;27;20225;-86
2023/10/20 10:19:29;;;;;;;9.20;8.90;;;14.60;99.90;;;;;;5130560;28;20225;-86
2023/10/20 10:27:40;;;;;;;9.20;8.90;;;14.70;99.90;;;;;;5129820;27;20246;-83
2023/10/20 10:30:11;;;;;;;9.03;8.73;;;14.80;99.90;;;;;;5129480;27;20300;-84
2023/10/20 10:35:26;;;;;;;8.93;8.67;;;14.70;99.90;;;;;;5131193;27;20225;-84
2023/10/20 10:37:57;;;;;;;8.80;8.60;;;14.70;99.90;;;;;;5130466;28;20320;-84
2023/10/20 10:40:37;;;;;;;9.00;8.80;;;14.70;99.90;;;;;;5130325;27;20221;-84
2023/10/20 10:43:04;;;;;;;8.82;8.63;;;14.80;99.90;;;;;;5130469;28;20240;-84
2023/10/20 10:45:43;;;;;;;9.03;8.73;;;14.90;99.90;;;;;;5132858;28;20217;-83
2023/10/20 10:48:12;;;;;;;9.20;8.90;;;15.10;99.90;;;;;;5133021;28;20247;-83
2023/10/20 10:50:42;;;;;;;9.30;9.00;;;15.20;99.90;;;;;;5133420;28;20237;-84
2023/10/20 10:53:12;;;;;;;9.50;9.20;;;15.30;99.90;;;;;;5132151;27;20232;-84
2023/10/20 10:58:30;;;;;;;9.60;9.30;;;15.20;99.90;;;;;;5130462;27;20315;-84
2023/10/20 11:00:57;;;;;;;9.30;9.00;;;15.10;99.90;;;;;;5130206;28;20262;-84
2023/10/20 11:03:26;;;;;;;9.80;9.50;;;15.10;99.90;;;;;;5135097;28;20233;-84
2023/10/20 11:05:56;;;;;;;9.17;8.87;;;15.10;99.90;;;;;;5130908;27;20224;-84
2023/10/20 11:08:25;;;;;;;9.60;9.30;;;15.10;99.90;;;;;;5130195;28;20216;-84
2023/10/20 11:13:48;;;;;;;9.18;8.88;;;15.10;99.90;;;;;;5130052;27;20217;-84
2023/10/20 11:19:01;;;;;;;8.70;8.50;;;15.20;99.90;;;;;;5129276;27;20221;-84
2023/10/20 11:21:29;;;;;;;8.68;8.48;;;15.40;99.90;;;;;;5131522;28;20252;-84
2023/10/20 11:23:57;;;;;;;8.80;8.60;;;15.40;99.90;;;;;;5130466;28;20224;-84
2023/10/20 11:26:29;;;;;;;8.80;8.60;;;15.40;99.90;;;;;;5129506;28;20220;-83
2023/10/20 11:28:57;;;;;;;9.23;8.93;;;15.30;99.90;;;;;;5130066;27;20227;-84
2023/10/20 11:31:25;;;;;;;9.40;9.10;;;15.30;99.90;;;;;;5129602;28;20233;-84
2023/10/20 11:33:55;;;;;;;9.38;9.07;;;15.30;99.90;;;;;;5130008;28;20236;-83
2023/10/20 11:36:24;;;;;;;9.52;9.23;;;15.40;99.90;;;;;;5133572;28;20255;-84
2023/10/20 11:39:06;;;;;;;9.43;9.13;;;15.40;99.90;;;;;;5133906;28;20224;-84
2023/10/20 11:41:35;;;;;;;9.43;9.13;;;15.40;99.90;;;;;;5132101;28;20263;-84
2023/10/20 11:44:02;;;;;;;9.43;9.13;;;15.50;99.90;;;;;;5129800;27;20289;-80
2023/10/20 11:46:29;;;;;;;9.30;9.00;;;15.60;99.90;;;;;;5128874;28;20217;-80
2023/10/20 11:48:57;;;;;;;9.50;9.20;;;15.80;99.90;;;;;;5128327;28;20229;-81
2023/10/20 11:51:24;;;;;;;9.48;9.18;;;15.80;99.90;;;;;;5129025;28;20239;-81
2023/10/20 11:53:52;;;;;;;9.90;9.60;;;15.80;99.90;;;;;;5128195;28;20232;-80
2023/10/20 11:56:19;;;;;;;9.80;9.50;;;15.80;99.90;;;;;;5128373;28;20240;-80
2023/10/20 11:58:49;;;;;;;9.73;9.43;;;15.80;99.90;;;;;;5127488;28;20241;-81
2023/10/20 12:01:18;;;;;;;9.70;9.40;;;15.70;99.90;;;;;;5128264;28;20334;-82
2023/10/20 12:03:48;;;;;;;9.80;9.50;;;15.70;99.90;;;;;;5128024;27;20255;-82
2023/10/20 12:06:15;;;;;;;9.40;9.10;;;15.60;99.90;;;;;;5128648;28;20262;-80
2023/10/20 12:08:44;;;;;;;9.68;9.38;;;15.70;99.90;;;;;;5128032;28;20236;-80
2023/10/20 12:11:16;;;;;;;9.77;9.48;;;15.70;99.90;;;;;;5128170;28;20248;-81
2023/10/20 12:13:48;;;;;;;9.60;9.30;;;15.70;99.90;;;;;;5130254;28;20259;-80
2023/10/20 12:16:19;;;;;;;9.50;9.20;;;15.80;99.90;;;;;;5131163;27;20221;-81
2023/10/20 12:18:47;;;;;;;9.60;9.30;;;15.90;99.90;;;;;;5133480;28;20236;-81
2023/10/20 12:21:14;;;;;;;9.30;9.00;;;15.90;99.90;;;;;;5133543;28;20229;-81
2023/10/20 12:23:42;;;;;;;9.75;9.45;;;16.00;99.90;;;;;;5133121;28;20255;-82
2023/10/20 12:26:14;;;;;;;9.77;9.48;;;16.10;99.90;;;;;;5133817;28;20251;-81
2023/10/20 12:28:42;;;;;;;9.60;9.30;;;16.10;99.90;;;;;;5136304;28;20355;-81
2023/10/20 12:31:22;;;;;;;9.68;9.38;;;16.20;99.90;;;;;;5134674;28;20232;-81
2023/10/20 12:33:52;;;;;;;9.70;9.40;;;16.30;99.90;;;;;;5132964;28;20262;-81
2023/10/20 12:36:21;;;;;;;9.80;9.50;;;16.30;99.90;;;;;;5133041;28;20220;-81
2023/10/20 12:38:49;;;;;;;9.65;9.35;;;16.30;99.90;;;;;;5132344;28;20205;-81
2023/10/20 12:41:16;;;;;;;9.57;9.27;;;16.40;99.90;;;;;;5132800;27;20230;-80
2023/10/20 12:43:47;;;;;;;9.80;9.50;;;16.40;99.90;;;;;;5134993;27;20237;-80
2023/10/20 12:46:14;;;;;;;9.80;9.50;;;16.40;99.90;;;;;;5136807;27;20307;-80
2023/10/20 12:48:41;;;;;;;9.90;9.60;;;16.40;99.90;;;;;;5138040;27;20235;-79
2023/10/20 12:51:11;;;;;;;9.85;9.55;;;16.50;99.90;;;;;;5139179;27;20247;-81
2023/10/20 12:53:38;;;;;;;9.90;9.60;;;16.40;99.90;;;;;;5138984;27;20255;-82
2023/10/20 12:56:06;;;;;;;10.00;9.70;;;16.40;99.90;;;;;;5139077;27;20236;-80
2023/10/20 12:58:39;;;;;;;9.60;9.30;;;16.50;99.90;;;;;;5139790;27;20288;-83
2023/10/20 13:01:06;;;;;;;9.60;9.30;;;16.60;99.90;;;;;;5134296;27;20300;-83
2023/10/20 13:03:34;;;;;;;9.80;9.50;;;16.70;99.90;;;;;;5134901;27;20232;-82
2023/10/20 13:06:02;;;;;;;9.98;9.68;;;16.80;99.90;;;;;;5132358;27;20237;-82
2023/10/20 13:08:37;;;;;;;9.90;9.60;;;16.90;99.90;;;;;;5130440;28;20283;-83
2023/10/20 13:11:05;;;;;;;9.52;9.23;;;17.00;99.90;;;;;;5130607;27;20248;-81
2023/10/20 13:13:44;;;;;;;9.70;9.40;;;17.20;99.90;;;;;;5130475;27;20233;-85
2023/10/20 13:16:12;;;;;;;9.75;9.45;;;17.30;99.90;;;;;;5134243;27;20231;-84
2023/10/20 13:18:42;;;;;;;9.93;9.63;;;17.50;99.90;;;;;;5132617;27;20217;-84
2023/10/20 13:21:11;;;;;;;9.35;9.05;;;17.60;99.90;;;;;;5131035;27;20403;-83
2023/10/20 13:23:41;;;;;;;9.40;9.10;;;17.70;99.90;;;;;;5130498;27;20255;-82
2023/10/20 13:26:08;;;;;;;9.20;8.90;;;17.70;99.90;;;;;;5130067;27;20288;-83
2023/10/20 13:28:48;;;;;;;9.45;9.15;;;17.90;99.90;;;;;;5128079;27;20237;-82
2023/10/20 13:31:21;;;;;;;9.65;9.35;;;18.40;99.90;;;;;;5128447;27;20247;-84
2023/10/20 13:33:48;;;;;;;9.43;9.13;;;19.00;99.90;;;;;;5129003;28;20291;-85
2023/10/20 13:36:16;;;;;;;10.10;9.80;;;19.50;99.90;;;;;;5130544;27;20241;-82
2023/10/20 13:38:49;;;;;;;10.07;9.77;;;19.90;99.90;;;;;;5130134;28;20232;-85
2023/10/20 13:41:16;;;;;;;10.20;9.90;;;20.20;99.90;;;;;;5130179;27;20239;-84
2023/10/20 13:43:55;;;;;;;10.00;9.70;;;20.40;99.90;;;;;;5129407;27;20232;-84
2023/10/20 13:49:57;;;;;;;10.30;10.00;;;20.10;99.90;;;;;;5128734;27;20306;-84
2023/10/20 13:57:57;;;;;;;10.07;9.77;;;19.20;99.90;;;;;;5129624;27;20205;-85
2023/10/20 14:00:26;;;;;;;9.80;9.50;;;19.00;99.90;;;;;;5129743;27;20228;-84